»·PEaware :: N8395Q L52-L88

N8395Q :: L52-L88

FLIGHT INFORMATION

Flight Status: Arrived
Operator: Privately registered:
United States
More flights under this callsign
Pilot: John P. (31881)
Aircraft: CESSNA 172 SKYHAWK
(C172)
More flights by this aircraft type
Origin: L52 Oceano Co
United States
Destination: L88 New Cuyama
United States
More flights between these airports :: More routes between these airports
Route:
File this flight plan on PilotEdge
Remarks:
Altitude:
(Current/Filed)
5,500ft
Speed:
(Current/Filed)
150kts
Departed: 04-Oct-20 06:01 PM
Arrived: 04-Oct-20 06:39 PM
Distance/Time
Traveled:
47nm/0:38
Distance/Time
To Go:
Arrived

Flight Plot

Page will automatically refresh every two minutes.


Map Options




Map Legend


Flown Route
Filed Route
Departure Airport
Arrival Airport
Navaid (VOR, NDB)
Fix

Horizontal Profiles

Position Reports

Time Latitude Longitude Heading Altitude Ground
Speed
04-Oct-20 17:47 0.000408 0.013975 0 3ft 0kts
04-Oct-20 17:48 0.000408 0.013975 0 3ft 0kts
04-Oct-20 17:49 35.102450 -120.622892 204 14ft 0kts
04-Oct-20 17:50 35.102450 -120.622892 204 19ft 0kts
04-Oct-20 17:51 35.102450 -120.622892 204 19ft 0kts
04-Oct-20 17:52 35.102450 -120.622892 204 19ft 0kts
04-Oct-20 17:53 35.102450 -120.622892 204 19ft 0kts
04-Oct-20 17:54 35.102450 -120.622892 203 19ft 0kts
04-Oct-20 17:55 35.102450 -120.622892 203 19ft 0kts
04-Oct-20 17:56 35.102707 -120.623991 217 20ft 4kts
04-Oct-20 17:57 35.102701 -120.623996 217 20ft 0kts
04-Oct-20 17:58 35.103253 -120.624636 124 18ft 8kts
04-Oct-20 17:59 35.101654 -120.622603 300 18ft 20kts
04-Oct-20 18:00 35.111518 -120.628498 101 369ft 67kts
04-Oct-20 18:01 35.107624 -120.605462 83 980ft 71kts
04-Oct-20 18:02 35.096920 -120.587228 114 1595ft 73kts
04-Oct-20 18:03 35.091449 -120.563480 102 2208ft 72kts
04-Oct-20 18:04 35.087433 -120.539263 102 2812ft 73kts
04-Oct-20 18:05 35.083353 -120.514722 102 3398ft 74kts
04-Oct-20 18:06 35.079185 -120.490032 102 3966ft 74kts
04-Oct-20 18:07 35.074967 -120.465182 102 4511ft 75kts
04-Oct-20 18:08 35.070700 -120.440041 103 5053ft 75kts
04-Oct-20 18:09 35.065907 -120.411898 102 5452ft 94kts
04-Oct-20 18:10 35.059574 -120.374681 102 5499ft 122kts
04-Oct-20 18:11 35.052562 -120.333554 102 5501ft 124kts
04-Oct-20 18:12 35.045461 -120.292056 102 5502ft 125kts
04-Oct-20 18:13 35.038281 -120.250175 102 5496ft 123kts
04-Oct-20 18:14 35.031320 -120.209682 102 5498ft 122kts
04-Oct-20 18:15 35.024368 -120.169267 102 5500ft 121kts
04-Oct-20 18:16 35.017384 -120.128802 102 5501ft 121kts
04-Oct-20 18:17 35.010359 -120.088171 102 5502ft 122kts
04-Oct-20 18:18 35.003302 -120.047439 102 5501ft 122kts
04-Oct-20 18:19 34.996261 -120.006840 102 5505ft 122kts
04-Oct-20 18:20 34.989226 -119.966462 102 5495ft 120kts
04-Oct-20 18:21 34.982246 -119.926381 102 5500ft 121kts
04-Oct-20 18:22 34.975201 -119.886099 102 5500ft 121kts
04-Oct-20 18:23 34.968140 -119.845675 102 5499ft 121kts
04-Oct-20 18:24 34.959156 -119.803607 109 5006ft 129kts
04-Oct-20 18:25 34.947855 -119.761523 108 4506ft 131kts
04-Oct-20 18:26 34.936559 -119.719089 108 3524ft 124kts
04-Oct-20 18:27 34.924323 -119.684774 118 3305ft 99kts
04-Oct-20 18:28 34.921249 -119.656908 28 3301ft 97kts
04-Oct-20 18:29 34.935736 -119.672292 276 3121ft 102kts
04-Oct-20 18:30 34.945787 -119.696911 299 2417ft 58kts
04-Oct-20 18:31 34.952511 -119.712195 293 2490ft 52kts
04-Oct-20 18:32 34.941950 -119.726159 186 2910ft 87kts
04-Oct-20 18:33 34.935893 -119.726477 178 3085ft 86kts
04-Oct-20 18:34 34.921036 -119.703783 114 3606ft 101kts
04-Oct-20 18:35 34.906224 -119.671809 125 3773ft 115kts
04-Oct-20 18:36 34.918356 -119.642955 23 3438ft 118kts
04-Oct-20 18:37 34.933895 -119.668974 287 2559ft 85kts
04-Oct-20 18:38 34.940840 -119.687774 296 2196ft 36kts
04-Oct-20 18:39 34.942264 -119.690597 14 2181ft 0kts
04-Oct-20 18:40 34.942264 -119.690597 14 2181ft 0kts
04-Oct-20 18:41 34.942264 -119.690597 14 2181ft 0kts
04-Oct-20 18:42 34.942264 -119.690597 14 2181ft 0kts
04-Oct-20 18:44 34.942264 -119.690597 14 2181ft 0kts

Navigation Log

Ident Type
Flight plan parsing failed, navigation log unavailable